Dades meteomassalio
Diari Summary for Marc 13, 2017 Units:  Metric    English   Both
« Previous Day
Next Day »
Diari Semanal Mensual Anual Personalitzat
  Maxima: Minima: Mijana:
Temperatura: -17.8 °C -13.9 °C -12.2 °C
Rosada: -17.8 °C -15.1 °C -13.7 °C
Humitat: Humidity % 66 % 83 %
Velocitat del vent: 0 km/h 0 km/h 15.9 km/h
Racha vent: 0 km/h - -
Vent:- - WSW
Pressio: 0 hPa 34418.7 hPa -
Pluja: 322.58 mm    
Historical Graphs
 
 
Tabular Data for Marc 13, 2017
Time Temperature Dew Point Pressure Wind Wind Speed Wind Gust Humidity Rainfall Rate (Hourly) solar Conditions
-17.8 °C -17.8 °C 0 hPa Calm     Humidity % 0 mm SolarRadiationWatts/m^2 W/m2 Conditions
00:04 -12.9 °C -14.9 °C 34428.8 hPa NW 50.7 km/h 50.7 km/h 78 % 0 mm 0.0 W/m2 RA
00:09 -13.1 °C -15.1 °C 34428.8 hPa WNW 54.4 km/h 54.4 km/h 78 % 0 mm 0.0 W/m2 CLR
00:14 -13.1 °C -15.1 °C 34428.8 hPa WNW 50.7 km/h 50.7 km/h 79 % 0 mm 0.0 W/m2 CLR
00:19 -13.2 °C -14.9 °C 34428.8 hPa WNW 44.7 km/h 44.7 km/h 81 % 7.62 mm 0.0 W/m2 RA
00:24 -13.2 °C -14.9 °C 34428.8 hPa WNW 50.7 km/h 50.7 km/h 81 % 7.62 mm 0.0 W/m2 CLR
00:29 -13.2 °C -14.9 °C 34428.8 hPa WNW 41.4 km/h 41.4 km/h 81 % 7.62 mm 0.0 W/m2 CLR
00:34 -13.2 °C -14.9 °C 34442.4 hPa NW 46.7 km/h 46.7 km/h 81 % 12.7 mm 0.0 W/m2 RA
00:39 -13.2 °C -14.9 °C 34428.8 hPa WNW 64.7 km/h 64.7 km/h 81 % 12.7 mm 0.0 W/m2 CLR
00:44 -13.3 °C -14.9 °C 34428.8 hPa NW 50.7 km/h 50.7 km/h 82 % 12.7 mm 0.0 W/m2 CLR
00:49 -13.3 °C -14.8 °C 34428.8 hPa WNW 41.7 km/h 41.7 km/h 83 % 12.7 mm 0.0 W/m2 CLR
00:54 -13.3 °C -14.8 °C 34428.8 hPa WNW 53.6 km/h 53.6 km/h 83 % 7.62 mm 0.0 W/m2 CLR
00:59 -13.4 °C -14.9 °C 34418.7 hPa WNW 59.5 km/h 59.5 km/h 83 % 12.7 mm 0.0 W/m2 RA
01:04 -13.4 °C -14.9 °C 34428.8 hPa NW 50.7 km/h 50.7 km/h 83 % 12.7 mm 0.0 W/m2
01:09 -13.4 °C -14.9 °C 34428.8 hPa WNW 47.6 km/h 47.6 km/h 83 % 12.7 mm 0.0 W/m2 CLR
01:14 -13.4 °C -14.9 °C 34442.4 hPa NW 41.7 km/h 41.7 km/h 83 % 12.7 mm 0.0 W/m2 CLR
01:19 -13.4 °C -14.9 °C 34442.4 hPa NW 47.6 km/h 47.6 km/h 83 % 12.7 mm 0.0 W/m2 CLR
01:24 -13.4 °C -14.9 °C 34442.4 hPa NW 36.2 km/h 36.2 km/h 83 % 12.7 mm 0.0 W/m2 CLR
01:29 -13.4 °C -14.9 °C 34442.4 hPa WNW 41.7 km/h 41.7 km/h 83 % 12.7 mm 0.0 W/m2 CLR
01:34 -13.4 °C -14.9 °C 34452.6 hPa NW 47.6 km/h 47.6 km/h 83 % 7.62 mm 0.0 W/m2 CLR
01:39 -13.4 °C -14.8 °C 34442.4 hPa West 44.7 km/h 44.7 km/h 84 % 7.62 mm 0.0 W/m2 CLR
01:44 -13.4 °C -14.8 °C 34442.4 hPa NNW 41.4 km/h 41.4 km/h 84 % 7.62 mm 0.0 W/m2 CLR
01:49 -13.4 °C -14.9 °C 34442.4 hPa WNW 32.8 km/h 32.8 km/h 84 % 7.62 mm 0.0 W/m2 CLR
01:54 -13.4 °C -14.8 °C 34442.4 hPa NW 46.7 km/h 46.7 km/h 85 % 7.62 mm 0.0 W/m2 CLR
01:59 -13.5 °C -14.8 °C 34442.4 hPa WNW 47.6 km/h 47.6 km/h 85 % 0 mm 0.0 W/m2 CLR
02:04 -13.6 °C -14.9 °C 34442.4 hPa WNW 53.6 km/h 53.6 km/h 85 % 0 mm 0.0 W/m2 CLR
02:09 -13.6 °C -14.8 °C 34442.4 hPa WNW 47.6 km/h 47.6 km/h 86 % 0 mm 0.0 W/m2 CLR
02:14 -13.7 °C -14.8 °C 34442.4 hPa WNW 56.6 km/h 56.6 km/h 86 % 0 mm 0.0 W/m2 CLR
02:19 -13.7 °C -14.8 °C 34442.4 hPa NNW 32.8 km/h 32.8 km/h 87 % 7.62 mm 0.0 W/m2 RA
02:25 -13.7 °C -14.8 °C 34442.4 hPa NNW 41.7 km/h 41.7 km/h 88 % 7.62 mm 0.0 W/m2 CLR
02:30 -13.8 °C -14.8 °C 34452.6 hPa WNW 53.6 km/h 53.6 km/h 88 % 12.7 mm 0.0 W/m2 RA
02:35 -13.8 °C -14.8 °C 34452.6 hPa WNW 32.8 km/h 32.8 km/h 88 % 20.32 mm 0.0 W/m2 RA
02:40 -13.8 °C -14.8 °C 34452.6 hPa NW 50.7 km/h 50.7 km/h 89 % 20.32 mm 0.0 W/m2
02:45 -13.8 °C -14.8 °C 34452.6 hPa NW 41.7 km/h 41.7 km/h 89 % 25.4 mm 0.0 W/m2 RA
02:50 -13.8 °C -14.8 °C 34452.6 hPa WNW 29.8 km/h 29.8 km/h 89 % 25.4 mm 0.0 W/m2 CLR
02:55 -13.8 °C -14.8 °C 34442.4 hPa NW 44.1 km/h 44.1 km/h 89 % 33.02 mm 0.0 W/m2 RA
03:00 -13.8 °C -14.8 °C 34442.4 hPa WNW 38.8 km/h 38.8 km/h 89 % 33.02 mm 0.0 W/m2 CLR
03:05 -13.9 °C -14.8 °C 34442.4 hPa NW 36.2 km/h 36.2 km/h 89 % 38.1 mm 0.0 W/m2 RA
03:10 -13.9 °C -14.8 °C 34442.4 hPa WNW 41.7 km/h 41.7 km/h 90 % 38.1 mm 0.0 W/m2
03:15 -13.9 °C -14.8 °C 34442.4 hPa NNW 53.6 km/h 53.6 km/h 90 % 38.1 mm 0.0 W/m2
03:20 -13.9 °C -14.8 °C 34442.4 hPa WNW 49.2 km/h 49.2 km/h 90 % 38.1 mm 0.0 W/m2 RA
03:25 -13.9 °C -14.8 °C 34442.4 hPa NW 50.7 km/h 50.7 km/h 90 % 45.72 mm 0.0 W/m2 RA
03:30 -13.8 °C -14.8 °C 34442.4 hPa NW 44.7 km/h 44.7 km/h 89 % 38.1 mm 0.0 W/m2
03:35 -13.9 °C -14.8 °C 34442.4 hPa WNW 41.7 km/h 41.7 km/h 89 % 33.02 mm 0.0 W/m2 CLR
03:40 -13.8 °C -14.8 °C 34442.4 hPa NW 41.4 km/h 41.4 km/h 89 % 33.02 mm 0.0 W/m2 CLR
03:46 -13.9 °C -14.8 °C 34442.4 hPa NW 32.8 km/h 32.8 km/h 90 % 33.02 mm 0.0 W/m2 RA
03:51 -13.9 °C -14.8 °C 34442.4 hPa NW 29.8 km/h 29.8 km/h 90 % 25.4 mm 0.0 W/m2 CLR
03:56 -13.9 °C -14.8 °C 34452.6 hPa NNW 29.8 km/h 29.8 km/h 90 % 33.02 mm 0.0 W/m2 RA
04:01 -13.9 °C -14.8 °C 34452.6 hPa West 23.8 km/h 23.8 km/h 90 % 38.1 mm 0.0 W/m2 RA
04:06 -13.9 °C -14.8 °C 34462.7 hPa SW 17.9 km/h 17.9 km/h 90 % 38.1 mm 0.0 W/m2 RA
04:11 -13.9 °C -14.8 °C 34462.7 hPa Calm     90 % 38.1 mm 0.0 W/m2 RA
04:16 -13.8 °C -14.7 °C 34462.7 hPa Calm     90 % 45.72 mm 0.0 W/m2 RA
04:21 -13.9 °C -14.7 °C 34462.7 hPa Calm     91 % 58.42 mm 0.0 W/m2 RA
04:26 -13.9 °C -14.7 °C 34462.7 hPa Calm     91 % 63.5 mm 0.0 W/m2 RA
04:31 -13.9 °C -14.7 °C 34462.7 hPa Calm     91 % 76.2 mm 0.0 W/m2 RA
04:36 -13.9 °C -14.7 °C 34462.7 hPa Calm     91 % 96.52 mm 0.0 W/m2 RA
04:41 -13.9 °C -14.7 °C 34452.6 hPa WNW 11.9 km/h 11.9 km/h 91 % 104.14 mm 0.0 W/m2 RA
04:46 -13.9 °C -14.7 °C 34452.6 hPa West 29.8 km/h 29.8 km/h 91 % 109.22 mm 0.0 W/m2 RA
04:51 -13.9 °C -14.7 °C 34452.6 hPa West 15 km/h 15 km/h 91 % 109.22 mm 0.0 W/m2
04:56 -13.9 °C -14.6 °C 34462.7 hPa West 23.8 km/h 23.8 km/h 92 % 109.22 mm 0.0 W/m2 RA
05:01 -13.9 °C -14.7 °C 34462.7 hPa WNW 23.8 km/h 23.8 km/h 91 % 109.22 mm 0.0 W/m2 RA
05:06 -13.9 °C -14.7 °C 34462.7 hPa Calm     91 % 109.22 mm 0.0 W/m2 RA
05:11 -13.9 °C -14.7 °C 34476.3 hPa WSW 9 km/h   91 % 96.52 mm 0.0 W/m2 CLR
05:16 -13.9 °C -14.6 °C 34476.3 hPa Calm     92 % 96.52 mm 0.0 W/m2 RA
05:21 -13.9 °C -14.6 °C 34486.4 hPa Calm     92 % 104.14 mm 0.0 W/m2 RA
05:31 -13.9 °C -14.6 °C 34486.4 hPa Calm     92 % 96.52 mm 0.0 W/m2 RA
05:36 -13.9 °C -14.6 °C 34486.4 hPa Calm     92 % 91.44 mm 0.0 W/m2 RA
05:41 -13.9 °C -14.6 °C 34496.6 hPa Calm     92 % 104.14 mm 0.0 W/m2 RA
05:46 -13.9 °C -14.6 °C 34496.6 hPa Calm     92 % 109.22 mm 0.0 W/m2 RA
05:51 -13.9 °C -14.6 °C 34486.4 hPa West 10.3 km/h 10.3 km/h 92 % 121.92 mm 0.0 W/m2 RA
05:56 -13.9 °C -14.6 °C 34486.4 hPa West 18.2 km/h 18.2 km/h 92 % 129.54 mm 0.0 W/m2 RA
06:01 -13.9 °C -14.6 °C 34486.4 hPa West 20.9 km/h 20.9 km/h 92 % 129.54 mm 0.0 W/m2 RA
06:06 -13.9 °C -14.6 °C 34486.4 hPa West 23.8 km/h 23.8 km/h 92 % 129.54 mm 0.0 W/m2 RA
06:11 -13.9 °C -14.6 °C 34486.4 hPa West 29.8 km/h 29.8 km/h 92 % 129.54 mm 0.0 W/m2 CLR
06:16 -13.9 °C -14.6 °C 34486.4 hPa West 26.9 km/h 26.9 km/h 92 % 116.84 mm 0.0 W/m2 CLR
06:21 -13.8 °C -14.6 °C 34486.4 hPa West 29.8 km/h 29.8 km/h 92 % 104.14 mm 0.0 W/m2 CLR
06:26 -13.8 °C -14.6 °C 34486.4 hPa West 29.8 km/h 29.8 km/h 92 % 91.44 mm 0.0 W/m2 CLR
06:31 -13.8 °C -14.6 °C 34486.4 hPa WNW 32.8 km/h 32.8 km/h 92 % 83.82 mm 0.0 W/m2 CLR
06:36 -13.8 °C -14.6 °C 34496.6 hPa WNW 26.9 km/h 26.9 km/h 92 % 63.5 mm 0.0 W/m2 CLR
06:41 -13.8 °C -14.6 °C 34496.6 hPa WNW 29.8 km/h 29.8 km/h 92 % 50.8 mm 0.0 W/m2 CLR
06:46 -13.8 °C -14.6 °C 34496.6 hPa WNW 29.8 km/h 29.8 km/h 92 % 33.02 mm 0.0 W/m2 CLR
06:51 -13.8 °C -14.6 °C 34496.6 hPa NW 32.8 km/h 32.8 km/h 92 % 20.32 mm 0.0 W/m2 CLR
06:56 -13.8 °C -14.6 °C 34496.6 hPa WNW 32.8 km/h 32.8 km/h 92 % 12.7 mm 0.0 W/m2 CLR
07:01 -13.8 °C -14.5 °C 34510.1 hPa WNW 32.8 km/h 32.8 km/h 92 % 7.62 mm 0.0 W/m2 CLR
07:06 -13.8 °C -14.5 °C 34510.1 hPa WNW 35.7 km/h 35.7 km/h 92 % 0 mm 0.0 W/m2 OVC
07:11 -13.8 °C -14.5 °C 34510.1 hPa West 29.8 km/h 29.8 km/h 92 % 0 mm 0.0 W/m2 OVC
07:16 -13.8 °C -14.5 °C 34510.1 hPa West 23.3 km/h 23.3 km/h 92 % 0 mm 0.0 W/m2 OVC
07:21 -13.8 °C -14.5 °C 34510.1 hPa WNW 29.8 km/h 29.8 km/h 92 % 0 mm 0.0 W/m2 OVC
07:26 -13.8 °C -14.5 °C 34520.3 hPa WNW 29.8 km/h 29.8 km/h 92 % 0 mm 5.0 W/m2 OVC
07:31 -13.8 °C -14.5 °C 34520.3 hPa NW 20.8 km/h 20.8 km/h 92 % 0 mm 9.0 W/m2 BKN
07:36 -13.8 °C -14.5 °C 34520.3 hPa West 20.9 km/h   92 % 0 mm 11.0 W/m2 BKN
07:41 -13.8 °C -14.5 °C 34520.3 hPa West 7.7 km/h 7.7 km/h 92 % 0 mm 9.0 W/m2 BKN
07:46 -13.7 °C -14.4 °C 34533.8 hPa Calm   2.6 km/h 92 % 0 mm 9.0 W/m2 BKN
07:51 -13.7 °C -14.4 °C 34533.8 hPa WSW 3.1 km/h 3.1 km/h 92 % 0 mm 7.0 W/m2 BKN
07:57 -13.7 °C -14.4 °C 34533.8 hPa Calm     92 % 0 mm 7.0 W/m2 BKN
08:01 -13.7 °C -14.4 °C 34544 hPa WSW 9 km/h 9 km/h 92 % 0 mm 7.0 W/m2 BKN
08:06 -13.7 °C -14.4 °C 34544 hPa WSW 3.1 km/h   92 % 0 mm 7.0 W/m2 BKN
08:11 -13.7 °C -14.4 °C 34544 hPa Calm     92 % 0 mm 7.0 W/m2 BKN
08:16 -13.7 °C -14.4 °C 34554.1 hPa Calm     92 % 0 mm 5.0 W/m2 BKN
08:22 -13.7 °C -14.4 °C 34554.1 hPa Calm     92 % 0 mm 11.0 W/m2 BKN
08:27 -13.7 °C -14.3 °C 34554.1 hPa Calm     92 % 0 mm 18.0 W/m2 BKN
08:32 -13.7 °C -14.3 °C 34554.1 hPa Calm     92 % 0 mm 18.0 W/m2 BKN
08:37 -13.7 °C -14.3 °C 34554.1 hPa WSW 9 km/h 9 km/h 92 % 0 mm 28.0 W/m2 BKN
08:42 -13.6 °C -14.3 °C 34567.7 hPa Calm     92 % 0 mm 32.0 W/m2 BKN
08:47 -13.6 °C -14.3 °C 34567.7 hPa WSW 9 km/h 9 km/h 92 % 0 mm 44.0 W/m2 BKN
08:52 -13.6 °C -14.3 °C 34567.7 hPa SW 9 km/h 9 km/h 92 % 0 mm 62.0 W/m2 BKN
08:57 -13.6 °C -14.3 °C 34567.7 hPa WSW 6 km/h 6 km/h 92 % 0 mm 70.0 W/m2 SCT
09:02 -13.6 °C -14.2 °C 34567.7 hPa Calm   2.1 km/h 92 % 0 mm 74.0 W/m2 FEW
09:07 -13.5 °C -14.2 °C 34567.7 hPa Calm     92 % 0 mm 100.0 W/m2 FEW
09:12 -13.4 °C -14.1 °C 34567.7 hPa WSW 9 km/h 9 km/h 92 % 0 mm 98.0 W/m2 CLR
09:17 -13.4 °C -14.1 °C 34567.7 hPa SW 9 km/h 9 km/h 92 % 0 mm 109.0 W/m2 CLR
09:22 -13.4 °C -14.1 °C 34577.8 hPa WSW 10.3 km/h 10.3 km/h 92 % 0 mm 93.0 W/m2 CLR
09:27 -13.3 °C -14.1 °C 34577.8 hPa WSW 11.9 km/h 11.9 km/h 91 % 0 mm 97.0 W/m2 CLR
09:32 -13.3 °C -14.1 °C 34577.8 hPa West 3.1 km/h 3.1 km/h 91 % 0 mm 104.0 W/m2 CLR
09:37 -13.3 °C -14.1 °C 34577.8 hPa WSW 9 km/h 9 km/h 91 % 0 mm 123.0 W/m2 CLR
09:42 -13.2 °C -14.1 °C 34577.8 hPa WSW 10.3 km/h 10.3 km/h 90 % 0 mm 121.0 W/m2 CLR
09:47 -13.2 °C -14 °C 34577.8 hPa West 18.2 km/h 18.2 km/h 90 % 0 mm 146.0 W/m2 CLR
09:52 -13.1 °C -14 °C 34577.8 hPa West 10.3 km/h 10.3 km/h 90 % 0 mm 199.0 W/m2 CLR
09:57 -13.1 °C -13.9 °C 34591.4 hPa West 20.9 km/h 20.9 km/h 90 % 0 mm 155.0 W/m2 CLR
10:02 -13 °C -13.8 °C 34591.4 hPa West 10.3 km/h 10.3 km/h 90 % 0 mm 107.0 W/m2 CLR
10:07 -13 °C -13.9 °C 34591.4 hPa WNW 9 km/h 9 km/h 89 % 0 mm 104.0 W/m2 CLR
10:12 -12.9 °C -13.9 °C 34591.4 hPa West 20.8 km/h 20.8 km/h 89 % 0 mm 156.0 W/m2 CLR
10:17 -12.9 °C -13.9 °C 34591.4 hPa WSW 17.9 km/h 17.9 km/h 88 % 0 mm 229.0 W/m2 CLR
10:22 -12.8 °C -13.8 °C 34591.4 hPa SW 11.9 km/h 11.9 km/h 89 % 0 mm 181.0 W/m2 CLR
10:27 -12.8 °C -13.8 °C 34591.4 hPa WSW 9 km/h 9 km/h 88 % 0 mm 137.0 W/m2 CLR
10:32 -12.8 °C -13.8 °C 34601.5 hPa West 11.9 km/h 11.9 km/h 88 % 0 mm 100.0 W/m2 CLR
10:37 -12.7 °C -13.8 °C 34601.5 hPa NW 9 km/h 9 km/h 88 % 0 mm 114.0 W/m2 CLR
10:42 -12.7 °C -13.8 °C 34601.5 hPa West 15 km/h 15 km/h 87 % 0 mm 123.0 W/m2 CLR
10:47 -12.7 °C -13.8 °C 34601.5 hPa WNW 12.9 km/h 12.9 km/h 87 % 0 mm 146.0 W/m2 CLR
10:52 -12.7 °C -13.8 °C 34601.5 hPa West 15 km/h 15 km/h 87 % 0 mm 123.0 W/m2 CLR
10:57 -12.6 °C -13.8 °C 34601.5 hPa WNW 17.9 km/h 17.9 km/h 87 % 0 mm 98.0 W/m2 CLR
11:02 -12.6 °C -13.7 °C 34611.7 hPa NW 15.6 km/h 15.6 km/h 87 % 0 mm 77.0 W/m2 CLR
11:07 -12.6 °C -13.7 °C 34611.7 hPa WNW 9 km/h 9 km/h 87 % 0 mm 72.0 W/m2 FEW
11:12 -12.6 °C -13.8 °C 34611.7 hPa WSW 3.1 km/h   86 % 0 mm 67.0 W/m2 FEW
11:17 -12.6 °C -13.8 °C 34625.2 hPa Calm     86 % 0 mm 67.0 W/m2 FEW
11:22 -12.6 °C -13.8 °C 34625.2 hPa Calm     86 % 0 mm 74.0 W/m2 FEW
11:27 -12.6 °C -13.8 °C 34611.7 hPa Calm     86 % 7.62 mm 120.0 W/m2 RA
11:32 -12.6 °C -13.7 °C 34611.7 hPa West 6 km/h 6 km/h 87 % 7.62 mm 149.0 W/m2 CLR
11:37 -12.5 °C -13.6 °C 34611.7 hPa WNW 11.9 km/h 11.9 km/h 88 % 7.62 mm 216.0 W/m2 CLR
11:42 -12.4 °C -13.4 °C 34611.7 hPa Calm     88 % 7.62 mm 220.0 W/m2 CLR
11:47 -12.3 °C -13.4 °C 34611.7 hPa West 12.9 km/h 12.9 km/h 88 % 7.62 mm 200.0 W/m2 CLR
11:52 -12.3 °C -13.4 °C 34625.2 hPa NW 15.6 km/h 15.6 km/h 87 % 7.62 mm 204.0 W/m2 CLR
11:57 -12.3 °C -13.4 °C 34625.2 hPa NW 20.9 km/h 20.9 km/h 87 % 7.62 mm 260.0 W/m2 CLR
12:02 -12.3 °C -13.4 °C 34625.2 hPa NW 20.9 km/h 20.9 km/h 87 % 7.62 mm 244.0 W/m2 CLR
12:07 -12.2 °C -13.2 °C 34625.2 hPa WNW 23.3 km/h 23.3 km/h 88 % 7.62 mm 323.0 W/m2 CLR
12:12 -12.2 °C -13.5 °C 34625.2 hPa WNW 23.3 km/h 23.3 km/h 85 % 7.62 mm 279.0 W/m2 CLR
12:17 -12.2 °C -13.5 °C 34625.2 hPa WSW 23.3 km/h 23.3 km/h 85 % 7.62 mm 230.0 W/m2 CLR
12:22 -12.1 °C -13.4 °C 34625.2 hPa West 17.9 km/h 17.9 km/h 85 % 7.62 mm 229.0 W/m2 CLR
12:27 -12.1 °C -13.4 °C 34611.7 hPa West 18.2 km/h 18.2 km/h 85 % 0 mm 216.0 W/m2 CLR
12:32 -12.1 °C -13.4 °C 34611.7 hPa West 29.8 km/h 29.8 km/h 85 % 0 mm 223.0 W/m2 CLR
12:37 -12 °C -13.3 °C 34625.2 hPa WSW 15 km/h 15 km/h 85 % 0 mm 211.0 W/m2 CLR
12:42 -12.1 °C -13.6 °C 34625.2 hPa SW 11.9 km/h 11.9 km/h 83 % 0 mm 204.0 W/m2 CLR
12:47 -12 °C -13.4 °C 34625.2 hPa WSW 11.9 km/h 11.9 km/h 84 % 0 mm 171.0 W/m2 CLR
12:52 -12 °C -13.4 °C 34625.2 hPa West 2.6 km/h 3.7 km/h 84 % 0 mm 172.0 W/m2 CLR
12:57 -11.9 °C -13.4 °C 34625.2 hPa West 11.9 km/h 11.9 km/h 84 % 0 mm 183.0 W/m2 CLR
13:02 -11.9 °C -13.4 °C 34625.2 hPa West 9 km/h 9 km/h 83 % 0 mm 163.0 W/m2 CLR
13:07 -11.9 °C -13.4 °C 34625.2 hPa West 17.9 km/h 17.9 km/h 83 % 0 mm 149.0 W/m2 CLR
13:12 -11.8 °C -13.4 °C 34625.2 hPa WSW 6 km/h   83 % 0 mm 171.0 W/m2 CLR
13:17 -11.8 °C -13.2 °C 34625.2 hPa West 9 km/h 9 km/h 84 % 0 mm 174.0 W/m2 CLR
13:22 -11.8 °C -13.4 °C 34625.2 hPa SW 9 km/h 9 km/h 82 % 0 mm 144.0 W/m2 CLR
13:27 -11.7 °C -13.4 °C 34625.2 hPa SW 6 km/h 6 km/h 82 % 0 mm 144.0 W/m2 CLR
13:32 -11.7 °C -13.3 °C 34625.2 hPa WSW 9 km/h 9 km/h 82 % 0 mm 172.0 W/m2 CLR
13:37 -11.6 °C -13.2 °C 34625.2 hPa WNW 9 km/h 9 km/h 83 % 0 mm 183.0 W/m2 CLR
13:42 -11.6 °C -13.2 °C 34611.7 hPa NW 9 km/h 9 km/h 82 % 0 mm 199.0 W/m2 CLR
13:47 -11.5 °C -13.3 °C 34611.7 hPa Calm     81 % 0 mm 227.0 W/m2 CLR
13:52 -11.5 °C -13.2 °C 34611.7 hPa SW 11.9 km/h 11.9 km/h 81 % 0 mm 250.0 W/m2 CLR
13:57 -11.4 °C -13.2 °C 34611.7 hPa West 3.1 km/h   81 % 0 mm 248.0 W/m2 CLR
14:02 -11.3 °C -13.2 °C 34611.7 hPa SW 6 km/h 6 km/h 80 % 0 mm 288.0 W/m2 CLR
14:07 -11.3 °C -13.3 °C 34611.7 hPa West 11.9 km/h 11.9 km/h 79 % 0 mm 327.0 W/m2 CLR
14:12 -11.2 °C -13.1 °C 34601.5 hPa WSW 9 km/h 9 km/h 80 % 0 mm 392.0 W/m2 CLR
14:17 -11.2 °C -13.1 °C 34601.5 hPa West 9 km/h 9 km/h 79 % 0 mm 262.0 W/m2 CLR
14:22 -11.1 °C -13.1 °C 34601.5 hPa WSW 15 km/h 15 km/h 79 % 0 mm 364.0 W/m2 CLR
14:27 -11.1 °C -13.1 °C 34601.5 hPa West 5.1 km/h 5.1 km/h 78 % 0 mm 454.0 W/m2 CLR
14:32 -10.8 °C -12.7 °C 34601.5 hPa SW 9 km/h   80 % 0 mm 575.0 W/m2 CLR
14:37 -10.7 °C -12.7 °C 34601.5 hPa West 12.9 km/h 12.9 km/h 78 % 0 mm 635.0 W/m2 CLR
14:42 -10.5 °C -12.8 °C 34601.5 hPa WSW 9 km/h 9 km/h 76 % 0 mm 540.0 W/m2 CLR
14:47 -10.4 °C -12.8 °C 34601.5 hPa West 11.9 km/h 11.9 km/h 75 % 0 mm 673.0 W/m2 CLR
14:52 -10.3 °C -12.8 °C 34591.4 hPa Calm   2.3 km/h 74 % 0 mm 729.0 W/m2 CLR
14:57 -10.1 °C -12.6 °C 34591.4 hPa WSW 12.9 km/h 12.9 km/h 74 % 0 mm 506.0 W/m2 CLR
15:02 -10.1 °C -12.7 °C 34591.4 hPa WNW 12.9 km/h 12.9 km/h 73 % 0 mm 626.0 W/m2 CLR
15:07 -9.9 °C -12.4 °C 34591.4 hPa Calm     74 % 0 mm 647.0 W/m2 CLR
15:12 -9.7 °C -12.6 °C 34591.4 hPa WSW 15 km/h 15 km/h 71 % 0 mm 494.0 W/m2 CLR
15:18 -9.8 °C -12.8 °C 34591.4 hPa SW 15 km/h 15 km/h 70 % 0 mm 315.0 W/m2 CLR
15:23 -9.9 °C -12.8 °C 34591.4 hPa WSW 11.9 km/h 11.9 km/h 71 % 0 mm 281.0 W/m2 CLR
15:28 -10 °C -13 °C 34591.4 hPa West 11.9 km/h 11.9 km/h 70 % 0 mm 279.0 W/m2 CLR
15:33 -10.1 °C -12.9 °C 34591.4 hPa Calm     71 % 0 mm 283.0 W/m2 CLR
15:38 -10 °C -12.9 °C 34591.4 hPa Calm     71 % 0 mm 281.0 W/m2 CLR
15:43 -9.9 °C -12.8 °C 34591.4 hPa Calm     71 % 0 mm 260.0 W/m2 CLR
15:48 -9.9 °C -12.7 °C 34591.4 hPa Calm     71 % 0 mm 301.0 W/m2 CLR
15:53 -9.8 °C -12.9 °C 34591.4 hPa Calm     69 % 0 mm 264.0 W/m2 CLR
15:58 -9.7 °C -12.6 °C 34591.4 hPa Calm     71 % 0 mm 234.0 W/m2 CLR
16:03 -9.8 °C -13 °C 34591.4 hPa West 9 km/h 9 km/h 68 % 0 mm 218.0 W/m2 CLR
16:08 -9.8 °C -13 °C 34591.4 hPa West 3.1 km/h 3.1 km/h 68 % 0 mm 216.0 W/m2 CLR
16:13 -9.8 °C -12.9 °C 34591.4 hPa Calm     69 % 0 mm 214.0 W/m2 CLR
16:18 -9.8 °C -13.1 °C 34601.5 hPa Calm     67 % 0 mm 178.0 W/m2 CLR
16:23 -9.7 °C -12.9 °C 34601.5 hPa Calm     68 % 0 mm 158.0 W/m2 CLR
16:28 -9.7 °C -13.1 °C 34601.5 hPa Calm     67 % 0 mm 127.0 W/m2 CLR
16:33 -9.7 °C -12.9 °C 34601.5 hPa Calm     68 % 0 mm 90.0 W/m2 CLR
16:38 -9.7 °C -13.2 °C 34601.5 hPa Calm     66 % 0 mm 83.0 W/m2 CLR
16:43 -9.7 °C -12.9 °C 34601.5 hPa Calm     68 % 0 mm 83.0 W/m2 CLR
16:48 -9.8 °C -13.1 °C 34601.5 hPa Calm     67 % 0 mm 83.0 W/m2 FEW
16:53 -9.8 °C -13.1 °C 34601.5 hPa Calm     67 % 0 mm 88.0 W/m2 FEW
16:58 -9.8 °C -13 °C 34601.5 hPa Calm     68 % 0 mm 84.0 W/m2 CLR
17:03 -9.8 °C -13 °C 34611.7 hPa Calm     68 % 0 mm 77.0 W/m2 FEW
17:08 -9.8 °C -12.9 °C 34611.7 hPa Calm     69 % 0 mm 81.0 W/m2 FEW
17:13 -9.8 °C -13.2 °C 34611.7 hPa Calm     67 % 0 mm 70.0 W/m2 FEW
17:18 -9.8 °C -13 °C 34611.7 hPa Calm     68 % 0 mm 60.0 W/m2 FEW
17:23 -9.8 °C -13.1 °C 34611.7 hPa Calm     68 % 0 mm 53.0 W/m2 SCT
17:28 -9.8 °C -13.1 °C 34625.2 hPa Calm     68 % 0 mm 39.0 W/m2 SCT
17:34 -9.8 °C -13.1 °C 34625.2 hPa Calm     68 % 0 mm 39.0 W/m2 BKN
17:39 -9.9 °C -12.5 °C 34625.2 hPa SSE 17.9 km/h 17.9 km/h 74 % 0 mm 26.0 W/m2 BKN
17:44 -10.2 °C -12.4 °C 34635.4 hPa SSE 17.9 km/h 17.9 km/h 77 % 0 mm 26.0 W/m2 BKN
17:49 -10.3 °C -12.4 °C 34635.4 hPa SSE 20.9 km/h 20.9 km/h 78 % 0 mm 19.0 W/m2 BKN
17:54 -10.4 °C -12.5 °C 34635.4 hPa South 10.3 km/h 10.3 km/h 78 % 0 mm 23.0 W/m2 BKN
17:59 -10.4 °C -12.6 °C 34645.6 hPa SSE 9 km/h 9 km/h 78 % 0 mm 14.0 W/m2 BKN
18:04 -10.5 °C -12.6 °C 34645.6 hPa SE 23.8 km/h 23.8 km/h 78 % 0 mm 9.0 W/m2 BKN
18:09 -10.6 °C -12.7 °C 34645.6 hPa South 23.8 km/h 23.8 km/h 78 % 0 mm 9.0 W/m2 BKN
18:14 -10.6 °C -12.7 °C 34659.1 hPa SSE 15 km/h 15 km/h 78 % 0 mm 11.0 W/m2 BKN
18:19 -10.7 °C -12.7 °C 34659.1 hPa SSE 23.8 km/h 23.8 km/h 78 % 0 mm 12.0 W/m2 BKN
18:24 -10.7 °C -12.8 °C 34659.1 hPa SSW 20.9 km/h 20.9 km/h 78 % 0 mm 9.0 W/m2 BKN
18:29 -10.7 °C -12.8 °C 34659.1 hPa SSE 11.9 km/h 11.9 km/h 78 % 0 mm 9.0 W/m2 BKN
18:34 -10.8 °C -12.8 °C 34669.3 hPa SSW 23.8 km/h 23.8 km/h 78 % 0 mm 7.0 W/m2 BKN
18:39 -10.8 °C -12.8 °C 34669.3 hPa South 18.2 km/h 18.2 km/h 78 % 0 mm 5.0 W/m2 OVC
18:44 -10.8 °C -12.9 °C 34669.3 hPa South 17.9 km/h 17.9 km/h 78 % 0 mm 0.0 W/m2 OVC
18:49 -10.8 °C -12.9 °C 34682.8 hPa South 20.9 km/h 20.9 km/h 78 % 0 mm 0.0 W/m2 OVC
18:54 -10.8 °C -12.9 °C 34682.8 hPa SSE 23.8 km/h 23.8 km/h 78 % 0 mm 0.0 W/m2 OVC
18:59 -10.8 °C -13 °C 34682.8 hPa South 20.9 km/h 20.9 km/h 77 % 0 mm 0.0 W/m2 OVC
19:04 -10.8 °C -13 °C 34682.8 hPa South 11.9 km/h 11.9 km/h 77 % 0 mm 0.0 W/m2 OVC
19:09 -10.9 °C -12.9 °C 34682.8 hPa South 11.9 km/h 11.9 km/h 78 % 0 mm 0.0 W/m2 OVC
19:14 -10.9 °C -12.9 °C 34693 hPa SSW 11.9 km/h 11.9 km/h 78 % 0 mm 0.0 W/m2 CLR
19:19 -10.9 °C -12.9 °C 34693 hPa SW 15 km/h 15 km/h 78 % 0 mm 0.0 W/m2 CLR
19:24 -10.9 °C -12.9 °C 34693 hPa SSW 9 km/h   78 % 0 mm 0.0 W/m2 CLR
19:29 -10.9 °C -13 °C 34703.1 hPa Calm     78 % 0 mm 0.0 W/m2 CLR
19:34 -10.9 °C -12.9 °C 34703.1 hPa SSW 9 km/h 9 km/h 79 % 0 mm 0.0 W/m2 CLR
19:39 -10.9 °C -13 °C 34703.1 hPa SSW 12.9 km/h 12.9 km/h 78 % 0 mm 0.0 W/m2 CLR
19:44 -10.9 °C -13 °C 34703.1 hPa SW 9 km/h 9 km/h 78 % 0 mm 0.0 W/m2 CLR
19:49 -10.9 °C -12.9 °C 34716.7 hPa SW 6 km/h 6 km/h 79 % 0 mm 0.0 W/m2 CLR
19:54 -10.9 °C -12.9 °C 34716.7 hPa Calm     79 % 0 mm 0.0 W/m2 CLR
19:59 -10.9 °C -12.9 °C 34716.7 hPa SW 5.1 km/h 5.1 km/h 79 % 0 mm 0.0 W/m2 CLR
20:04 -10.9 °C -13 °C 34726.8 hPa SSW 6 km/h   78 % 0 mm 0.0 W/m2 CLR
20:09 -10.9 °C -13 °C 34726.8 hPa SW 9 km/h 9 km/h 78 % 0 mm 0.0 W/m2 CLR
20:14 -10.9 °C -12.9 °C 34726.8 hPa SSW 10.3 km/h 10.3 km/h 78 % 0 mm 0.0 W/m2 CLR
20:19 -10.9 °C -13.1 °C 34740.4 hPa SSW 15 km/h 15 km/h 77 % 0 mm 0.0 W/m2 CLR
20:24 -10.8 °C -13 °C 34740.4 hPa SW 20.9 km/h 20.9 km/h 77 % 0 mm 0.0 W/m2 CLR
20:29 -10.8 °C -13 °C 34740.4 hPa SSW 20.9 km/h 20.9 km/h 77 % 0 mm 0.0 W/m2 CLR
20:34 -10.8 °C -13 °C 34740.4 hPa SW 11.9 km/h 11.9 km/h 77 % 0 mm 0.0 W/m2 CLR
20:39 -10.8 °C -12.9 °C 34750.5 hPa SW 15.6 km/h 15.6 km/h 78 % 0 mm 0.0 W/m2 CLR
20:44 -10.8 °C -12.9 °C 34750.5 hPa SW 15.6 km/h 15.6 km/h 78 % 0 mm 0.0 W/m2 CLR
20:49 -10.8 °C -12.9 °C 34750.5 hPa SSW 17.9 km/h 17.9 km/h 78 % 0 mm 0.0 W/m2 CLR
20:54 -10.8 °C -12.9 °C 34750.5 hPa SW 11.9 km/h 11.9 km/h 78 % 0 mm 0.0 W/m2 CLR
20:59 -10.8 °C -12.9 °C 34760.7 hPa Calm     78 % 0 mm 0.0 W/m2 CLR
21:04 -10.9 °C -12.9 °C 34760.7 hPa South 17.9 km/h 17.9 km/h 78 % 0 mm 0.0 W/m2 CLR
21:09 -10.9 °C -12.8 °C 34760.7 hPa SSW 17.9 km/h 17.9 km/h 79 % 0 mm 0.0 W/m2 CLR
21:14 -10.9 °C -12.8 °C 34774.2 hPa SSE 15 km/h 15 km/h 79 % 0 mm 0.0 W/m2 CLR
21:19 -10.9 °C -12.7 °C 34774.2 hPa SW 15 km/h 15 km/h 80 % 0 mm 0.0 W/m2 CLR
21:24 -10.9 °C -12.6 °C 34774.2 hPa South 9 km/h 9 km/h 81 % 0 mm 0.0 W/m2 CLR
21:29 -10.9 °C -12.7 °C 34774.2 hPa SSE 9 km/h 9 km/h 81 % 0 mm 0.0 W/m2 CLR
21:34 -10.9 °C -12.7 °C 34784.4 hPa South 9 km/h 9 km/h 81 % 0 mm 0.0 W/m2 CLR
21:39 -10.9 °C -12.6 °C 34784.4 hPa South 18.2 km/h 18.2 km/h 82 % 0 mm 0.0 W/m2 CLR
21:44 -10.9 °C -12.6 °C 34784.4 hPa South 9 km/h 9 km/h 82 % 0 mm 0.0 W/m2 CLR
21:49 -10.9 °C -12.6 °C 34797.9 hPa SSE 6 km/h 6 km/h 82 % 0 mm 0.0 W/m2 CLR
21:54 -10.9 °C -12.6 °C 34797.9 hPa SSE 20.8 km/h 20.8 km/h 82 % 0 mm 0.0 W/m2 CLR
21:59 -10.9 °C -12.6 °C 34797.9 hPa SE 9 km/h 9 km/h 82 % 0 mm 0.0 W/m2 CLR
22:04 -10.9 °C -12.4 °C 34797.9 hPa South 12.9 km/h 12.9 km/h 83 % 0 mm 0.0 W/m2 CLR
22:09 -10.9 °C -12.4 °C 34808.1 hPa Calm     83 % 0 mm 0.0 W/m2 CLR
22:14 -10.9 °C -12.4 °C 34808.1 hPa Calm     83 % 0 mm 0.0 W/m2 CLR
22:19 -10.9 °C -12.5 °C 34808.1 hPa Calm     83 % 0 mm 0.0 W/m2 CLR
22:24 -10.9 °C -12.6 °C 34808.1 hPa SSW 9 km/h   82 % 0 mm 0.0 W/m2 CLR
22:29 -10.9 °C -12.6 °C 34808.1 hPa Calm     82 % 0 mm 0.0 W/m2 CLR
22:34 -11 °C -12.7 °C 34808.1 hPa Calm     82 % 0 mm 0.0 W/m2 CLR
22:39 -11 °C -12.7 °C 34818.2 hPa Calm     82 % 0 mm 0.0 W/m2 CLR
22:44 -11.1 °C -12.7 °C 34818.2 hPa Calm     82 % 0 mm 0.0 W/m2 CLR
22:49 -11.1 °C -12.7 °C 34818.2 hPa Calm     82 % 0 mm 0.0 W/m2 CLR
22:54 -11.1 °C -12.7 °C 34818.2 hPa Calm     83 % 0 mm 0.0 W/m2 CLR
22:59 -11.2 °C -12.7 °C 34818.2 hPa Calm   0.3 km/h 83 % 0 mm 0.0 W/m2 CLR
23:04 -11.2 °C -12.8 °C 34818.2 hPa Calm     82 % 0 mm 0.0 W/m2 CLR
23:09 -11.2 °C -12.8 °C 34818.2 hPa SSW 12.9 km/h 12.9 km/h 82 % 0 mm 0.0 W/m2 CLR
23:14 -11.2 °C -12.9 °C 34818.2 hPa SW 9 km/h   81 % 0 mm 0.0 W/m2 CLR
23:20 -11.2 °C -12.9 °C 34818.2 hPa Calm     81 % 0 mm 0.0 W/m2 CLR
23:25 -11.2 °C -13 °C 34818.2 hPa Calm     80 % 0 mm 0.0 W/m2 CLR
23:30 -11.2 °C -13 °C 34818.2 hPa Calm     80 % 0 mm 0.0 W/m2 CLR
23:35 -11.2 °C -13.1 °C 34818.2 hPa Calm     80 % 0 mm 0.0 W/m2 CLR
23:40 -11.2 °C -13.1 °C 34818.2 hPa Calm     80 % 0 mm 0.0 W/m2 CLR
23:45 -11.3 °C -13.1 °C 34818.2 hPa Calm     80 % 0 mm 0.0 W/m2 CLR
23:50 -11.4 °C -13.2 °C 34818.2 hPa Calm     80 % 0 mm 0.0 W/m2 CLR
23:55 -11.6 °C -13.3 °C 34818.2 hPa Calm     81 % 0 mm 0.0 W/m2 CLR
Lo Temps de Massalio
Compliments of Weather Underground - 1.25 mb